createdAt,value
2023-02-15T00:03:57.760Z,16.8
2023-02-15T00:14:00.004Z,16.8
2023-02-15T00:24:02.121Z,16.7
2023-02-15T00:34:04.486Z,16.4
2023-02-15T00:44:06.693Z,16.6
2023-02-15T00:54:08.940Z,16.6
2023-02-15T01:04:11.287Z,16.7
2023-02-15T01:14:13.558Z,16.5
2023-02-15T01:24:15.632Z,16.7
2023-02-15T01:34:17.997Z,16.6
2023-02-15T01:44:20.246Z,16.7
2023-02-15T01:54:22.649Z,16.6
2023-02-15T02:04:24.703Z,16.4
2023-02-15T02:14:26.946Z,16.7
2023-02-15T02:24:29.243Z,16.8
2023-02-15T02:34:31.503Z,16.6
2023-02-15T02:44:33.551Z,16.6
2023-02-15T02:54:35.868Z,16.4
2023-02-15T03:03:08.462Z,16.3
2023-02-15T03:13:10.447Z,16.5
2023-02-15T03:23:12.112Z,16.8
2023-02-15T03:33:12.916Z,16.5
2023-02-15T03:43:15.506Z,16.5
2023-02-15T03:53:17.130Z,16.7
2023-02-15T04:03:19.190Z,16.6
2023-02-15T04:13:22.444Z,16.7
2023-02-15T04:23:25.200Z,16.7
2023-02-15T04:33:28.188Z,16.6
2023-02-15T04:43:31.148Z,16.8
2023-02-15T04:53:34.244Z,16.8
2023-02-15T05:03:37.202Z,16.7
2023-02-15T05:13:39.591Z,16.9
2023-02-15T05:23:41.971Z,16.8
2023-02-15T05:33:44.520Z,16.9
2023-02-15T05:43:46.837Z,16.8
2023-02-15T05:53:49.395Z,16.8
2023-02-15T06:03:51.836Z,16.6
2023-02-15T06:13:54.295Z,16.6
2023-02-15T06:23:56.899Z,16.9
2023-02-15T06:33:59.661Z,17.1
2023-02-15T06:44:02.308Z,17.1
2023-02-15T06:54:05.211Z,16.9
2023-02-15T07:04:08.066Z,18.1
2023-02-15T07:14:12.358Z,17.7
2023-02-15T07:24:21.422Z,20.3
2023-02-15T07:34:30.477Z,20.7
2023-02-15T07:44:40.677Z,20.1
2023-02-15T07:54:49.047Z,21
2023-02-15T08:04:56.626Z,20.4
2023-02-15T08:15:04.641Z,20.5
2023-02-15T08:25:12.420Z,20.2
2023-02-15T08:35:19.529Z,20.6
2023-02-15T08:45:24.457Z,19.6
2023-02-15T08:55:28.468Z,19.3
2023-02-15T09:03:11.119Z,20.2
2023-02-15T09:13:16.462Z,20.6
2023-02-15T09:22:25.283Z,20.3
2023-02-15T09:32:30.815Z,20.1
2023-02-15T09:42:36.835Z,20.5
2023-02-15T09:52:44.809Z,20
2023-02-15T10:02:52.366Z,20.5
2023-02-15T10:13:00.276Z,20.1
2023-02-15T10:23:08.421Z,20.1
2023-02-15T10:33:18.206Z,21.6
2023-02-15T10:43:28.720Z,21.6
2023-02-15T10:53:37.888Z,21.6
2023-02-15T11:03:46.881Z,21
2023-02-15T11:13:57.219Z,21.8
2023-02-15T11:24:05.404Z,21.2
2023-02-15T11:34:12.355Z,21.8
2023-02-15T11:44:18.970Z,21.3
2023-02-15T11:54:27.048Z,22.1
2023-02-15T12:04:29.572Z,20.4
2023-02-15T12:14:33.087Z,19.3
2023-02-15T12:24:35.678Z,18.3
2023-02-15T12:34:38.592Z,18.1
2023-02-15T12:44:38.429Z,18.1
2023-02-15T12:54:39.956Z,17.6
2023-02-15T13:04:43.152Z,20.1
2023-02-15T13:14:45.498Z,19.8
2023-02-15T13:24:47.790Z,19.7
2023-02-15T13:34:49.794Z,19.9
2023-02-15T13:44:52.170Z,19.9
2023-02-15T13:54:54.030Z,19.8
2023-02-15T14:04:56.952Z,19.6
2023-02-15T14:14:58.911Z,19.7
2023-02-15T14:25:01.479Z,19.9
2023-02-15T14:35:03.804Z,19.6
2023-02-15T14:45:05.607Z,19
2023-02-15T14:55:07.824Z,19.4
2023-02-15T15:03:08.905Z,16.7
2023-02-15T15:13:10.102Z,16.4
2023-02-15T15:23:10.602Z,16.2
2023-02-15T15:33:10.412Z,16.4
2023-02-15T15:43:11.721Z,18.6
2023-02-15T15:53:13.353Z,18.9
2023-02-15T16:03:14.667Z,16.1
2023-02-15T16:13:17.259Z,18.4
2023-02-15T16:23:19.307Z,15.8
2023-02-15T16:33:22.136Z,17.9
2023-02-15T16:43:23.409Z,15.9
2023-02-15T16:53:25.430Z,15.8
2023-02-15T17:03:26.230Z,18.4
2023-02-15T17:13:26.492Z,15.5
2023-02-15T17:23:26.122Z,15.5
2023-02-15T17:33:26.626Z,15.4
2023-02-15T17:43:26.219Z,15.9
2023-02-15T17:53:26.432Z,15.6
2023-02-15T18:03:25.647Z,15.3
2023-02-15T18:13:25.859Z,15.3
2023-02-15T18:23:24.847Z,15.3
2023-02-15T18:33:25.155Z,15.3
2023-02-15T18:43:24.859Z,15.5
2023-02-15T18:53:24.847Z,17.8
2023-02-15T19:03:24.932Z,15.4
2023-02-15T19:13:24.160Z,15.5
2023-02-15T19:23:24.690Z,15.3
2023-02-15T19:33:24.604Z,14.9
2023-02-15T19:43:26.285Z,15.2
2023-02-15T19:53:24.108Z,15.1
2023-02-15T20:03:23.798Z,14.9
2023-02-15T20:13:24.590Z,15.1
2023-02-15T20:23:25.014Z,17.5
2023-02-15T20:33:24.471Z,15.3
2023-02-15T20:43:24.155Z,15.2
2023-02-15T20:53:25.117Z,14.6
2023-02-15T21:02:07.808Z,14.7
2023-02-15T21:12:08.202Z,15.1
2023-02-15T21:22:09.153Z,15.1
2023-02-15T21:32:10.494Z,14.6
2023-02-15T21:42:11.548Z,14.8
2023-02-15T21:52:11.646Z,14.9
2023-02-15T22:02:13.043Z,17.1
2023-02-15T22:12:13.391Z,14.6
2023-02-15T22:22:12.423Z,14.7
2023-02-15T22:32:12.163Z,14.8
2023-02-15T22:42:12.053Z,17.1
2023-02-15T22:52:11.647Z,14.7
2023-02-15T23:02:09.924Z,14.8
2023-02-15T23:12:11.082Z,14.3
2023-02-15T23:22:10.698Z,16.3
2023-02-15T23:32:10.256Z,16.8
2023-02-15T23:42:10.158Z,14.7
2023-02-15T23:52:09.781Z,14.4
